sensor_id;sensor_type;location;lat;lon;timestamp;P1;durP1;ratioP1;P2;durP2;ratioP2
24467;SDS011;12634;50.852;5.676;2023-05-18T00:01:21;10.63;;;4.05;;
24467;SDS011;12634;50.852;5.676;2023-05-18T00:03:48;13.35;;;3.70;;
24467;SDS011;12634;50.852;5.676;2023-05-18T00:06:18;9.98;;;3.53;;
24467;SDS011;12634;50.852;5.676;2023-05-18T00:08:46;15.25;;;3.95;;
24467;SDS011;12634;50.852;5.676;2023-05-18T00:11:13;7.97;;;3.58;;
24467;SDS011;12634;50.852;5.676;2023-05-18T00:13:40;10.32;;;3.55;;
24467;SDS011;12634;50.852;5.676;2023-05-18T00:16:08;12.70;;;4.47;;
24467;SDS011;12634;50.852;5.676;2023-05-18T00:18:39;10.98;;;3.92;;
24467;SDS011;12634;50.852;5.676;2023-05-18T00:21:06;10.27;;;3.95;;
24467;SDS011;12634;50.852;5.676;2023-05-18T00:23:33;15.38;;;4.13;;
24467;SDS011;12634;50.852;5.676;2023-05-18T00:26:03;13.32;;;4.90;;
24467;SDS011;12634;50.852;5.676;2023-05-18T00:28:30;11.35;;;3.58;;
24467;SDS011;12634;50.852;5.676;2023-05-18T00:30:58;8.43;;;3.55;;
24467;SDS011;12634;50.852;5.676;2023-05-18T00:33:25;12.77;;;3.65;;
24467;SDS011;12634;50.852;5.676;2023-05-18T00:35:54;13.20;;;3.75;;
24467;SDS011;12634;50.852;5.676;2023-05-18T00:38:22;13.43;;;3.80;;
24467;SDS011;12634;50.852;5.676;2023-05-18T00:40:49;11.90;;;4.05;;
24467;SDS011;12634;50.852;5.676;2023-05-18T00:43:16;12.77;;;3.70;;
24467;SDS011;12634;50.852;5.676;2023-05-18T00:45:43;9.75;;;3.28;;
24467;SDS011;12634;50.852;5.676;2023-05-18T00:48:10;7.97;;;3.10;;
24467;SDS011;12634;50.852;5.676;2023-05-18T00:50:37;9.93;;;3.70;;
24467;SDS011;12634;50.852;5.676;2023-05-18T00:53:06;10.40;;;3.70;;
24467;SDS011;12634;50.852;5.676;2023-05-18T00:55:35;9.85;;;3.03;;
24467;SDS011;12634;50.852;5.676;2023-05-18T00:58:02;8.80;;;3.20;;
24467;SDS011;12634;50.852;5.676;2023-05-18T01:00:29;12.10;;;3.97;;
24467;SDS011;12634;50.852;5.676;2023-05-18T01:02:57;10.23;;;3.63;;
24467;SDS011;12634;50.852;5.676;2023-05-18T01:05:26;11.70;;;4.00;;
24467;SDS011;12634;50.852;5.676;2023-05-18T01:07:53;10.68;;;3.53;;
24467;SDS011;12634;50.852;5.676;2023-05-18T01:10:23;12.32;;;3.97;;
24467;SDS011;12634;50.852;5.676;2023-05-18T01:12:52;11.55;;;3.47;;
24467;SDS011;12634;50.852;5.676;2023-05-18T01:15:23;9.40;;;3.47;;
24467;SDS011;12634;50.852;5.676;2023-05-18T01:18:00;14.77;;;3.72;;
24467;SDS011;12634;50.852;5.676;2023-05-18T01:20:36;9.18;;;3.10;;
24467;SDS011;12634;50.852;5.676;2023-05-18T01:23:21;10.18;;;3.50;;
24467;SDS011;12634;50.852;5.676;2023-05-18T01:26:15;13.70;;;3.90;;
24467;SDS011;12634;50.852;5.676;2023-05-18T01:28:48;7.45;;;3.05;;
24467;SDS011;12634;50.852;5.676;2023-05-18T01:31:17;9.00;;;3.30;;
24467;SDS011;12634;50.852;5.676;2023-05-18T01:33:44;10.00;;;4.47;;
24467;SDS011;12634;50.852;5.676;2023-05-18T01:36:12;9.20;;;3.38;;
24467;SDS011;12634;50.852;5.676;2023-05-18T01:38:39;9.95;;;3.22;;
24467;SDS011;12634;50.852;5.676;2023-05-18T01:41:09;14.00;;;4.00;;
24467;SDS011;12634;50.852;5.676;2023-05-18T01:43:43;12.20;;;3.13;;
24467;SDS011;12634;50.852;5.676;2023-05-18T01:46:19;9.52;;;3.72;;
24467;SDS011;12634;50.852;5.676;2023-05-18T01:48:55;9.82;;;3.40;;
24467;SDS011;12634;50.852;5.676;2023-05-18T01:51:28;7.72;;;3.00;;
24467;SDS011;12634;50.852;5.676;2023-05-18T01:54:02;9.00;;;3.40;;
24467;SDS011;12634;50.852;5.676;2023-05-18T01:56:32;8.63;;;3.25;;
24467;SDS011;12634;50.852;5.676;2023-05-18T01:59:01;13.52;;;3.65;;
24467;SDS011;12634;50.852;5.676;2023-05-18T02:01:29;11.48;;;3.53;;
24467;SDS011;12634;50.852;5.676;2023-05-18T02:03:56;11.10;;;3.65;;
24467;SDS011;12634;50.852;5.676;2023-05-18T02:06:23;10.00;;;3.10;;
24467;SDS011;12634;50.852;5.676;2023-05-18T02:08:50;12.05;;;4.13;;
24467;SDS011;12634;50.852;5.676;2023-05-18T02:11:17;7.82;;;3.58;;
24467;SDS011;12634;50.852;5.676;2023-05-18T02:13:45;9.82;;;3.40;;
24467;SDS011;12634;50.852;5.676;2023-05-18T02:16:14;11.75;;;3.95;;
24467;SDS011;12634;50.852;5.676;2023-05-18T02:18:41;11.52;;;3.75;;
24467;SDS011;12634;50.852;5.676;2023-05-18T02:21:08;10.20;;;3.80;;
24467;SDS011;12634;50.852;5.676;2023-05-18T02:23:37;11.65;;;3.95;;
24467;SDS011;12634;50.852;5.676;2023-05-18T02:26:05;9.20;;;4.10;;
24467;SDS011;12634;50.852;5.676;2023-05-18T02:28:33;8.20;;;3.08;;
24467;SDS011;12634;50.852;5.676;2023-05-18T02:31:03;8.00;;;3.60;;
24467;SDS011;12634;50.852;5.676;2023-05-18T02:33:33;10.73;;;4.25;;
24467;SDS011;12634;50.852;5.676;2023-05-18T02:36:05;8.77;;;3.40;;
24467;SDS011;12634;50.852;5.676;2023-05-18T02:38:34;10.60;;;3.47;;
24467;SDS011;12634;50.852;5.676;2023-05-18T02:41:03;10.15;;;3.42;;
24467;SDS011;12634;50.852;5.676;2023-05-18T02:43:30;11.60;;;3.92;;
24467;SDS011;12634;50.852;5.676;2023-05-18T02:45:57;10.25;;;3.42;;
24467;SDS011;12634;50.852;5.676;2023-05-18T02:48:24;12.38;;;4.05;;
24467;SDS011;12634;50.852;5.676;2023-05-18T02:50:53;11.70;;;3.95;;
24467;SDS011;12634;50.852;5.676;2023-05-18T02:53:20;8.60;;;3.63;;
24467;SDS011;12634;50.852;5.676;2023-05-18T02:55:48;8.93;;;3.20;;
24467;SDS011;12634;50.852;5.676;2023-05-18T02:58:18;13.70;;;3.50;;
24467;SDS011;12634;50.852;5.676;2023-05-18T03:00:47;13.02;;;3.90;;
24467;SDS011;12634;50.852;5.676;2023-05-18T03:03:16;9.00;;;4.03;;
24467;SDS011;12634;50.852;5.676;2023-05-18T03:05:43;13.85;;;4.85;;
24467;SDS011;12634;50.852;5.676;2023-05-18T03:08:12;14.25;;;4.20;;
24467;SDS011;12634;50.852;5.676;2023-05-18T03:10:39;8.88;;;3.85;;
24467;SDS011;12634;50.852;5.676;2023-05-18T03:13:06;9.90;;;4.45;;
24467;SDS011;12634;50.852;5.676;2023-05-18T03:15:33;12.48;;;3.65;;
24467;SDS011;12634;50.852;5.676;2023-05-18T03:18:01;11.75;;;4.13;;
24467;SDS011;12634;50.852;5.676;2023-05-18T03:20:29;9.38;;;4.30;;
24467;SDS011;12634;50.852;5.676;2023-05-18T03:22:56;10.07;;;4.65;;
24467;SDS011;12634;50.852;5.676;2023-05-18T03:25:25;11.35;;;4.20;;
24467;SDS011;12634;50.852;5.676;2023-05-18T03:27:52;9.57;;;4.13;;
24467;SDS011;12634;50.852;5.676;2023-05-18T03:30:19;12.43;;;4.28;;
24467;SDS011;12634;50.852;5.676;2023-05-18T03:32:46;8.45;;;3.92;;
24467;SDS011;12634;50.852;5.676;2023-05-18T03:35:14;7.00;;;4.05;;
24467;SDS011;12634;50.852;5.676;2023-05-18T03:37:41;8.82;;;4.15;;
24467;SDS011;12634;50.852;5.676;2023-05-18T03:40:09;10.52;;;4.63;;
24467;SDS011;12634;50.852;5.676;2023-05-18T03:42:39;13.80;;;4.05;;
24467;SDS011;12634;50.852;5.676;2023-05-18T03:45:07;11.88;;;4.13;;
24467;SDS011;12634;50.852;5.676;2023-05-18T03:47:35;16.33;;;4.97;;
24467;SDS011;12634;50.852;5.676;2023-05-18T03:50:03;9.80;;;4.43;;
24467;SDS011;12634;50.852;5.676;2023-05-18T03:52:31;8.80;;;4.22;;
24467;SDS011;12634;50.852;5.676;2023-05-18T03:54:59;7.38;;;4.15;;
24467;SDS011;12634;50.852;5.676;2023-05-18T03:57:27;15.05;;;4.60;;
24467;SDS011;12634;50.852;5.676;2023-05-18T03:59:56;12.07;;;4.72;;
24467;SDS011;12634;50.852;5.676;2023-05-18T04:02:23;10.18;;;4.50;;
24467;SDS011;12634;50.852;5.676;2023-05-18T04:04:50;12.90;;;5.00;;
24467;SDS011;12634;50.852;5.676;2023-05-18T04:07:18;15.15;;;4.70;;
24467;SDS011;12634;50.852;5.676;2023-05-18T04:09:48;8.95;;;4.35;;
24467;SDS011;12634;50.852;5.676;2023-05-18T04:12:16;14.57;;;4.05;;
24467;SDS011;12634;50.852;5.676;2023-05-18T04:14:43;13.38;;;3.95;;
24467;SDS011;12634;50.852;5.676;2023-05-18T04:17:15;11.98;;;4.15;;
24467;SDS011;12634;50.852;5.676;2023-05-18T04:19:42;7.40;;;3.67;;
24467;SDS011;12634;50.852;5.676;2023-05-18T04:22:10;9.13;;;4.20;;
24467;SDS011;12634;50.852;5.676;2023-05-18T04:24:37;11.88;;;3.95;;
24467;SDS011;12634;50.852;5.676;2023-05-18T04:27:05;13.73;;;3.90;;
24467;SDS011;12634;50.852;5.676;2023-05-18T04:29:34;10.35;;;3.67;;
24467;SDS011;12634;50.852;5.676;2023-05-18T04:32:03;9.63;;;4.10;;
24467;SDS011;12634;50.852;5.676;2023-05-18T04:34:33;11.05;;;4.85;;
24467;SDS011;12634;50.852;5.676;2023-05-18T04:37:01;8.25;;;3.50;;
24467;SDS011;12634;50.852;5.676;2023-05-18T04:39:30;9.98;;;4.03;;
24467;SDS011;12634;50.852;5.676;2023-05-18T04:41:58;9.00;;;3.65;;
24467;SDS011;12634;50.852;5.676;2023-05-18T04:44:29;7.95;;;3.92;;
24467;SDS011;12634;50.852;5.676;2023-05-18T04:46:58;14.65;;;4.53;;
24467;SDS011;12634;50.852;5.676;2023-05-18T04:49:26;9.35;;;3.70;;
24467;SDS011;12634;50.852;5.676;2023-05-18T04:51:55;10.85;;;3.85;;
24467;SDS011;12634;50.852;5.676;2023-05-18T04:54:23;9.20;;;3.55;;
24467;SDS011;12634;50.852;5.676;2023-05-18T04:56:52;10.43;;;4.18;;
24467;SDS011;12634;50.852;5.676;2023-05-18T04:59:19;9.80;;;3.25;;
24467;SDS011;12634;50.852;5.676;2023-05-18T05:01:50;12.45;;;3.53;;
24467;SDS011;12634;50.852;5.676;2023-05-18T05:04:18;10.75;;;3.65;;
24467;SDS011;12634;50.852;5.676;2023-05-18T05:06:46;9.43;;;3.38;;
24467;SDS011;12634;50.852;5.676;2023-05-18T05:09:14;9.30;;;3.33;;
24467;SDS011;12634;50.852;5.676;2023-05-18T05:11:42;8.80;;;3.42;;
24467;SDS011;12634;50.852;5.676;2023-05-18T05:14:09;9.93;;;3.60;;
24467;SDS011;12634;50.852;5.676;2023-05-18T05:16:36;6.70;;;3.65;;
24467;SDS011;12634;50.852;5.676;2023-05-18T05:19:04;9.70;;;3.97;;
24467;SDS011;12634;50.852;5.676;2023-05-18T05:21:31;9.55;;;3.47;;
24467;SDS011;12634;50.852;5.676;2023-05-18T05:23:58;10.40;;;3.33;;
24467;SDS011;12634;50.852;5.676;2023-05-18T05:26:30;10.68;;;3.88;;
24467;SDS011;12634;50.852;5.676;2023-05-18T05:28:57;9.52;;;3.47;;
24467;SDS011;12634;50.852;5.676;2023-05-18T05:31:24;7.38;;;3.30;;
24467;SDS011;12634;50.852;5.676;2023-05-18T05:33:52;14.23;;;3.88;;
24467;SDS011;12634;50.852;5.676;2023-05-18T05:36:19;6.65;;;3.28;;
24467;SDS011;12634;50.852;5.676;2023-05-18T05:38:46;7.78;;;3.20;;
24467;SDS011;12634;50.852;5.676;2023-05-18T05:41:13;9.00;;;3.45;;
24467;SDS011;12634;50.852;5.676;2023-05-18T05:43:42;11.13;;;3.92;;
24467;SDS011;12634;50.852;5.676;2023-05-18T05:46:09;10.50;;;3.55;;
24467;SDS011;12634;50.852;5.676;2023-05-18T05:48:36;11.85;;;3.45;;
24467;SDS011;12634;50.852;5.676;2023-05-18T05:51:03;10.70;;;3.83;;
24467;SDS011;12634;50.852;5.676;2023-05-18T05:53:30;10.93;;;3.50;;
24467;SDS011;12634;50.852;5.676;2023-05-18T05:55:57;10.32;;;3.88;;
24467;SDS011;12634;50.852;5.676;2023-05-18T05:58:24;11.70;;;3.78;;
24467;SDS011;12634;50.852;5.676;2023-05-18T06:00:53;8.15;;;2.85;;
24467;SDS011;12634;50.852;5.676;2023-05-18T06:03:21;9.73;;;3.47;;
24467;SDS011;12634;50.852;5.676;2023-05-18T06:05:48;9.82;;;3.38;;
24467;SDS011;12634;50.852;5.676;2023-05-18T06:08:15;9.63;;;3.90;;
24467;SDS011;12634;50.852;5.676;2023-05-18T06:10:42;10.20;;;3.65;;
24467;SDS011;12634;50.852;5.676;2023-05-18T06:13:09;10.40;;;3.80;;
24467;SDS011;12634;50.852;5.676;2023-05-18T06:15:36;9.35;;;3.35;;
24467;SDS011;12634;50.852;5.676;2023-05-18T06:18:05;10.25;;;3.83;;
24467;SDS011;12634;50.852;5.676;2023-05-18T06:20:32;10.10;;;3.97;;
24467;SDS011;12634;50.852;5.676;2023-05-18T06:22:59;9.70;;;3.25;;
24467;SDS011;12634;50.852;5.676;2023-05-18T06:25:26;15.18;;;3.92;;
24467;SDS011;12634;50.852;5.676;2023-05-18T06:27:53;9.05;;;3.20;;
24467;SDS011;12634;50.852;5.676;2023-05-18T06:30:20;9.43;;;3.40;;
24467;SDS011;12634;50.852;5.676;2023-05-18T06:32:48;9.13;;;3.25;;
24467;SDS011;12634;50.852;5.676;2023-05-18T06:35:16;12.27;;;3.10;;
24467;SDS011;12634;50.852;5.676;2023-05-18T06:37:43;7.95;;;3.42;;
24467;SDS011;12634;50.852;5.676;2023-05-18T06:40:10;7.65;;;3.40;;
24467;SDS011;12634;50.852;5.676;2023-05-18T06:42:38;9.18;;;3.35;;
24467;SDS011;12634;50.852;5.676;2023-05-18T06:45:05;13.13;;;3.33;;
24467;SDS011;12634;50.852;5.676;2023-05-18T06:47:33;9.50;;;3.60;;
24467;SDS011;12634;50.852;5.676;2023-05-18T06:50:01;11.43;;;3.65;;
24467;SDS011;12634;50.852;5.676;2023-05-18T06:52:29;12.73;;;3.72;;
24467;SDS011;12634;50.852;5.676;2023-05-18T06:54:56;7.85;;;3.15;;
24467;SDS011;12634;50.852;5.676;2023-05-18T06:57:25;9.73;;;3.42;;
24467;SDS011;12634;50.852;5.676;2023-05-18T06:59:52;12.15;;;3.38;;
24467;SDS011;12634;50.852;5.676;2023-05-18T07:02:20;10.95;;;3.22;;
24467;SDS011;12634;50.852;5.676;2023-05-18T07:04:47;6.43;;;3.03;;
24467;SDS011;12634;50.852;5.676;2023-05-18T07:07:14;9.73;;;3.58;;
24467;SDS011;12634;50.852;5.676;2023-05-18T07:09:43;9.60;;;3.88;;
24467;SDS011;12634;50.852;5.676;2023-05-18T07:12:10;9.32;;;3.17;;
24467;SDS011;12634;50.852;5.676;2023-05-18T07:14:37;8.55;;;3.28;;
24467;SDS011;12634;50.852;5.676;2023-05-18T07:17:05;10.30;;;2.90;;
24467;SDS011;12634;50.852;5.676;2023-05-18T07:19:32;8.10;;;3.03;;
24467;SDS011;12634;50.852;5.676;2023-05-18T07:22:00;9.40;;;3.42;;
24467;SDS011;12634;50.852;5.676;2023-05-18T07:24:28;9.77;;;3.15;;
24467;SDS011;12634;50.852;5.676;2023-05-18T07:26:57;6.63;;;2.95;;
24467;SDS011;12634;50.852;5.676;2023-05-18T07:29:24;10.77;;;3.33;;
24467;SDS011;12634;50.852;5.676;2023-05-18T07:31:51;8.55;;;3.20;;
24467;SDS011;12634;50.852;5.676;2023-05-18T07:34:18;11.40;;;3.45;;
24467;SDS011;12634;50.852;5.676;2023-05-18T07:36:45;9.02;;;3.40;;
24467;SDS011;12634;50.852;5.676;2023-05-18T07:39:12;9.43;;;2.75;;
24467;SDS011;12634;50.852;5.676;2023-05-18T07:41:42;9.52;;;3.45;;
24467;SDS011;12634;50.852;5.676;2023-05-18T07:44:12;11.20;;;2.88;;
24467;SDS011;12634;50.852;5.676;2023-05-18T07:46:40;6.53;;;2.85;;
24467;SDS011;12634;50.852;5.676;2023-05-18T07:49:08;9.77;;;3.13;;
24467;SDS011;12634;50.852;5.676;2023-05-18T07:51:35;7.75;;;3.00;;
24467;SDS011;12634;50.852;5.676;2023-05-18T07:54:02;7.72;;;3.00;;
24467;SDS011;12634;50.852;5.676;2023-05-18T07:56:30;8.73;;;3.10;;
24467;SDS011;12634;50.852;5.676;2023-05-18T07:58:57;8.25;;;3.10;;
24467;SDS011;12634;50.852;5.676;2023-05-18T08:01:26;10.38;;;3.58;;
24467;SDS011;12634;50.852;5.676;2023-05-18T08:03:54;7.78;;;3.20;;
24467;SDS011;12634;50.852;5.676;2023-05-18T08:06:21;11.50;;;3.20;;
24467;SDS011;12634;50.852;5.676;2023-05-18T08:08:49;11.25;;;3.63;;
24467;SDS011;12634;50.852;5.676;2023-05-18T08:11:16;13.43;;;3.13;;
24467;SDS011;12634;50.852;5.676;2023-05-18T08:13:43;8.48;;;3.03;;
24467;SDS011;12634;50.852;5.676;2023-05-18T08:16:10;10.40;;;3.00;;
24467;SDS011;12634;50.852;5.676;2023-05-18T08:18:39;7.30;;;2.90;;
24467;SDS011;12634;50.852;5.676;2023-05-18T08:21:06;7.25;;;3.03;;
24467;SDS011;12634;50.852;5.676;2023-05-18T08:23:33;9.32;;;3.40;;
24467;SDS011;12634;50.852;5.676;2023-05-18T08:26:01;9.23;;;3.55;;
24467;SDS011;12634;50.852;5.676;2023-05-18T08:28:28;9.73;;;3.47;;
24467;SDS011;12634;50.852;5.676;2023-05-18T08:30:55;12.55;;;3.63;;
24467;SDS011;12634;50.852;5.676;2023-05-18T08:33:22;10.27;;;3.50;;
24467;SDS011;12634;50.852;5.676;2023-05-18T08:35:51;10.20;;;3.22;;
24467;SDS011;12634;50.852;5.676;2023-05-18T08:38:18;9.43;;;2.88;;
24467;SDS011;12634;50.852;5.676;2023-05-18T08:40:47;11.70;;;3.25;;
24467;SDS011;12634;50.852;5.676;2023-05-18T08:43:20;8.63;;;3.10;;
24467;SDS011;12634;50.852;5.676;2023-05-18T08:45:54;14.23;;;3.55;;
24467;SDS011;12634;50.852;5.676;2023-05-18T08:48:27;9.20;;;3.22;;
24467;SDS011;12634;50.852;5.676;2023-05-18T08:50:59;8.98;;;3.60;;
24467;SDS011;12634;50.852;5.676;2023-05-18T08:53:28;10.20;;;3.20;;
24467;SDS011;12634;50.852;5.676;2023-05-18T08:55:58;9.25;;;3.13;;
24467;SDS011;12634;50.852;5.676;2023-05-18T08:58:28;8.57;;;2.60;;
24467;SDS011;12634;50.852;5.676;2023-05-18T09:00:59;12.27;;;3.08;;
24467;SDS011;12634;50.852;5.676;2023-05-18T09:03:28;13.45;;;2.50;;
24467;SDS011;12634;50.852;5.676;2023-05-18T09:05:55;7.47;;;2.53;;
24467;SDS011;12634;50.852;5.676;2023-05-18T09:08:25;8.80;;;2.47;;
24467;SDS011;12634;50.852;5.676;2023-05-18T09:10:55;9.18;;;2.88;;
24467;SDS011;12634;50.852;5.676;2023-05-18T09:13:23;8.95;;;2.45;;
24467;SDS011;12634;50.852;5.676;2023-05-18T09:15:51;9.02;;;2.40;;
24467;SDS011;12634;50.852;5.676;2023-05-18T09:18:18;9.98;;;2.63;;
24467;SDS011;12634;50.852;5.676;2023-05-18T09:20:45;7.35;;;2.50;;
24467;SDS011;12634;50.852;5.676;2023-05-18T09:23:14;6.68;;;2.33;;
24467;SDS011;12634;50.852;5.676;2023-05-18T09:25:43;7.55;;;2.10;;
24467;SDS011;12634;50.852;5.676;2023-05-18T09:28:21;6.68;;;2.10;;
24467;SDS011;12634;50.852;5.676;2023-05-18T09:30:51;8.35;;;2.60;;
24467;SDS011;12634;50.852;5.676;2023-05-18T09:33:19;8.35;;;2.20;;
24467;SDS011;12634;50.852;5.676;2023-05-18T09:35:48;8.38;;;2.63;;
24467;SDS011;12634;50.852;5.676;2023-05-18T09:38:16;5.95;;;2.25;;
24467;SDS011;12634;50.852;5.676;2023-05-18T09:40:47;5.30;;;2.13;;
24467;SDS011;12634;50.852;5.676;2023-05-18T09:43:15;8.02;;;2.58;;
24467;SDS011;12634;50.852;5.676;2023-05-18T09:45:44;7.28;;;2.92;;
24467;SDS011;12634;50.852;5.676;2023-05-18T09:48:13;7.57;;;2.60;;
24467;SDS011;12634;50.852;5.676;2023-05-18T09:50:41;8.05;;;2.83;;
24467;SDS011;12634;50.852;5.676;2023-05-18T09:53:09;9.02;;;2.80;;
24467;SDS011;12634;50.852;5.676;2023-05-18T09:55:43;7.80;;;2.35;;
24467;SDS011;12634;50.852;5.676;2023-05-18T09:58:13;9.07;;;2.67;;
24467;SDS011;12634;50.852;5.676;2023-05-18T10:00:41;8.45;;;2.90;;
24467;SDS011;12634;50.852;5.676;2023-05-18T10:03:16;6.63;;;2.15;;
24467;SDS011;12634;50.852;5.676;2023-05-18T10:05:44;9.00;;;2.83;;
24467;SDS011;12634;50.852;5.676;2023-05-18T10:08:12;8.82;;;2.70;;
24467;SDS011;12634;50.852;5.676;2023-05-18T10:10:41;7.43;;;2.28;;
24467;SDS011;12634;50.852;5.676;2023-05-18T10:13:15;9.32;;;2.60;;
24467;SDS011;12634;50.852;5.676;2023-05-18T10:15:48;8.80;;;3.05;;
24467;SDS011;12634;50.852;5.676;2023-05-18T10:18:20;5.35;;;2.45;;
24467;SDS011;12634;50.852;5.676;2023-05-18T10:20:48;7.15;;;2.58;;
24467;SDS011;12634;50.852;5.676;2023-05-18T10:23:16;7.20;;;2.60;;
24467;SDS011;12634;50.852;5.676;2023-05-18T10:25:45;7.97;;;2.92;;
24467;SDS011;12634;50.852;5.676;2023-05-18T10:28:13;6.35;;;2.42;;
24467;SDS011;12634;50.852;5.676;2023-05-18T10:30:51;9.20;;;2.70;;
24467;SDS011;12634;50.852;5.676;2023-05-18T10:33:20;6.68;;;2.17;;
24467;SDS011;12634;50.852;5.676;2023-05-18T10:35:49;8.25;;;2.85;;
24467;SDS011;12634;50.852;5.676;2023-05-18T10:38:18;6.40;;;2.45;;
24467;SDS011;12634;50.852;5.676;2023-05-18T10:40:47;12.05;;;3.08;;
24467;SDS011;12634;50.852;5.676;2023-05-18T10:43:17;6.20;;;2.45;;
24467;SDS011;12634;50.852;5.676;2023-05-18T10:45:52;6.63;;;2.42;;
24467;SDS011;12634;50.852;5.676;2023-05-18T10:48:21;9.75;;;2.72;;
24467;SDS011;12634;50.852;5.676;2023-05-18T10:50:49;7.88;;;2.50;;
24467;SDS011;12634;50.852;5.676;2023-05-18T10:53:18;7.88;;;2.60;;
24467;SDS011;12634;50.852;5.676;2023-05-18T10:55:47;5.88;;;2.63;;
24467;SDS011;12634;50.852;5.676;2023-05-18T10:58:16;8.38;;;2.50;;
24467;SDS011;12634;50.852;5.676;2023-05-18T11:00:47;8.23;;;2.70;;
24467;SDS011;12634;50.852;5.676;2023-05-18T11:03:16;6.90;;;2.33;;
24467;SDS011;12634;50.852;5.676;2023-05-18T11:05:49;9.90;;;2.97;;
24467;SDS011;12634;50.852;5.676;2023-05-18T11:08:24;6.80;;;2.35;;
24467;SDS011;12634;50.852;5.676;2023-05-18T11:10:59;9.77;;;2.47;;
24467;SDS011;12634;50.852;5.676;2023-05-18T11:13:30;6.25;;;2.22;;
24467;SDS011;12634;50.852;5.676;2023-05-18T11:16:01;5.78;;;2.38;;
24467;SDS011;12634;50.852;5.676;2023-05-18T11:18:42;8.90;;;2.83;;
24467;SDS011;12634;50.852;5.676;2023-05-18T11:21:29;7.82;;;2.58;;
24467;SDS011;12634;50.852;5.676;2023-05-18T11:24:27;6.55;;;2.50;;
24467;SDS011;12634;50.852;5.676;2023-05-18T11:26:56;7.47;;;2.58;;
24467;SDS011;12634;50.852;5.676;2023-05-18T11:29:30;7.07;;;2.30;;
24467;SDS011;12634;50.852;5.676;2023-05-18T11:31:59;9.30;;;2.90;;
24467;SDS011;12634;50.852;5.676;2023-05-18T11:34:33;7.65;;;2.50;;
24467;SDS011;12634;50.852;5.676;2023-05-18T11:37:02;7.35;;;2.80;;
24467;SDS011;12634;50.852;5.676;2023-05-18T11:39:31;7.40;;;2.40;;
24467;SDS011;12634;50.852;5.676;2023-05-18T11:41:58;6.55;;;2.95;;
24467;SDS011;12634;50.852;5.676;2023-05-18T11:44:26;8.98;;;2.65;;
24467;SDS011;12634;50.852;5.676;2023-05-18T11:47:06;8.93;;;2.92;;
24467;SDS011;12634;50.852;5.676;2023-05-18T11:49:35;10.55;;;2.95;;
24467;SDS011;12634;50.852;5.676;2023-05-18T11:52:07;9.90;;;3.15;;
24467;SDS011;12634;50.852;5.676;2023-05-18T11:54:39;8.60;;;3.03;;
24467;SDS011;12634;50.852;5.676;2023-05-18T11:57:08;5.93;;;2.67;;
24467;SDS011;12634;50.852;5.676;2023-05-18T11:59:37;8.13;;;2.25;;
24467;SDS011;12634;50.852;5.676;2023-05-18T12:02:06;6.05;;;2.33;;
24467;SDS011;12634;50.852;5.676;2023-05-18T12:04:40;8.60;;;2.63;;
24467;SDS011;12634;50.852;5.676;2023-05-18T12:07:08;6.10;;;2.53;;
24467;SDS011;12634;50.852;5.676;2023-05-18T12:09:39;9.02;;;3.15;;
24467;SDS011;12634;50.852;5.676;2023-05-18T12:12:08;7.75;;;2.47;;
24467;SDS011;12634;50.852;5.676;2023-05-18T12:14:36;8.52;;;2.95;;
24467;SDS011;12634;50.852;5.676;2023-05-18T12:17:08;5.93;;;2.50;;
24467;SDS011;12634;50.852;5.676;2023-05-18T12:19:36;9.57;;;2.72;;
24467;SDS011;12634;50.852;5.676;2023-05-18T12:22:04;7.63;;;2.63;;
24467;SDS011;12634;50.852;5.676;2023-05-18T12:24:33;6.95;;;2.75;;
24467;SDS011;12634;50.852;5.676;2023-05-18T12:27:00;8.57;;;2.90;;
24467;SDS011;12634;50.852;5.676;2023-05-18T12:29:30;8.07;;;2.75;;
24467;SDS011;12634;50.852;5.676;2023-05-18T12:31:57;7.65;;;2.53;;
24467;SDS011;12634;50.852;5.676;2023-05-18T12:34:28;8.82;;;2.50;;
24467;SDS011;12634;50.852;5.676;2023-05-18T12:36:55;9.70;;;2.65;;
24467;SDS011;12634;50.852;5.676;2023-05-18T12:39:23;7.00;;;2.35;;
24467;SDS011;12634;50.852;5.676;2023-05-18T12:41:50;5.95;;;2.83;;
24467;SDS011;12634;50.852;5.676;2023-05-18T12:44:18;6.03;;;2.70;;
24467;SDS011;12634;50.852;5.676;2023-05-18T12:46:46;8.93;;;3.10;;
24467;SDS011;12634;50.852;5.676;2023-05-18T12:49:13;6.22;;;3.25;;
24467;SDS011;12634;50.852;5.676;2023-05-18T12:51:45;9.60;;;3.03;;
24467;SDS011;12634;50.852;5.676;2023-05-18T12:54:12;9.68;;;3.65;;
24467;SDS011;12634;50.852;5.676;2023-05-18T12:56:50;13.90;;;3.28;;
24467;SDS011;12634;50.852;5.676;2023-05-18T12:59:23;8.35;;;3.08;;
24467;SDS011;12634;50.852;5.676;2023-05-18T13:01:51;5.07;;;2.50;;
24467;SDS011;12634;50.852;5.676;2023-05-18T13:04:19;7.45;;;2.70;;
24467;SDS011;12634;50.852;5.676;2023-05-18T13:06:49;9.60;;;2.60;;
24467;SDS011;12634;50.852;5.676;2023-05-18T13:09:16;6.93;;;2.70;;
24467;SDS011;12634;50.852;5.676;2023-05-18T13:11:49;7.03;;;3.05;;
24467;SDS011;12634;50.852;5.676;2023-05-18T13:14:19;7.28;;;2.97;;
24467;SDS011;12634;50.852;5.676;2023-05-18T13:16:48;7.15;;;2.33;;
24467;SDS011;12634;50.852;5.676;2023-05-18T13:19:17;9.40;;;2.90;;
24467;SDS011;12634;50.852;5.676;2023-05-18T13:21:45;6.90;;;2.42;;
24467;SDS011;12634;50.852;5.676;2023-05-18T13:24:21;8.20;;;3.35;;
24467;SDS011;12634;50.852;5.676;2023-05-18T13:26:48;7.35;;;2.65;;
24467;SDS011;12634;50.852;5.676;2023-05-18T13:29:15;9.00;;;3.38;;
24467;SDS011;12634;50.852;5.676;2023-05-18T13:31:43;11.45;;;3.40;;
24467;SDS011;12634;50.852;5.676;2023-05-18T13:34:10;8.80;;;2.67;;
24467;SDS011;12634;50.852;5.676;2023-05-18T13:36:38;9.77;;;2.75;;
24467;SDS011;12634;50.852;5.676;2023-05-18T13:39:05;9.02;;;3.00;;
24467;SDS011;12634;50.852;5.676;2023-05-18T13:41:33;7.38;;;2.85;;
24467;SDS011;12634;50.852;5.676;2023-05-18T13:44:01;12.55;;;3.10;;
24467;SDS011;12634;50.852;5.676;2023-05-18T13:46:29;8.13;;;2.70;;
24467;SDS011;12634;50.852;5.676;2023-05-18T13:48:56;9.00;;;2.78;;
24467;SDS011;12634;50.852;5.676;2023-05-18T13:51:23;7.93;;;2.75;;
24467;SDS011;12634;50.852;5.676;2023-05-18T13:53:50;8.30;;;2.92;;
24467;SDS011;12634;50.852;5.676;2023-05-18T13:56:17;7.55;;;2.53;;
24467;SDS011;12634;50.852;5.676;2023-05-18T13:58:46;8.82;;;3.08;;
24467;SDS011;12634;50.852;5.676;2023-05-18T14:01:14;9.10;;;3.05;;
24467;SDS011;12634;50.852;5.676;2023-05-18T14:03:41;7.47;;;3.00;;
24467;SDS011;12634;50.852;5.676;2023-05-18T14:06:09;8.02;;;2.92;;
24467;SDS011;12634;50.852;5.676;2023-05-18T14:08:36;8.00;;;3.28;;
24467;SDS011;12634;50.852;5.676;2023-05-18T14:11:03;9.98;;;2.97;;
24467;SDS011;12634;50.852;5.676;2023-05-18T14:13:30;9.52;;;3.20;;
24467;SDS011;12634;50.852;5.676;2023-05-18T14:15:59;10.20;;;3.00;;
24467;SDS011;12634;50.852;5.676;2023-05-18T14:18:26;9.25;;;3.00;;
24467;SDS011;12634;50.852;5.676;2023-05-18T14:20:53;8.88;;;2.90;;
24467;SDS011;12634;50.852;5.676;2023-05-18T14:23:24;6.40;;;3.00;;
24467;SDS011;12634;50.852;5.676;2023-05-18T14:25:51;8.90;;;3.35;;
24467;SDS011;12634;50.852;5.676;2023-05-18T14:28:18;9.15;;;2.83;;
24467;SDS011;12634;50.852;5.676;2023-05-18T14:30:46;7.22;;;3.25;;
24467;SDS011;12634;50.852;5.676;2023-05-18T14:33:14;8.20;;;2.75;;
24467;SDS011;12634;50.852;5.676;2023-05-18T14:35:41;8.55;;;3.38;;
24467;SDS011;12634;50.852;5.676;2023-05-18T14:38:08;7.78;;;3.08;;
24467;SDS011;12634;50.852;5.676;2023-05-18T14:40:36;5.65;;;3.00;;
24467;SDS011;12634;50.852;5.676;2023-05-18T14:43:03;7.97;;;3.35;;
24467;SDS011;12634;50.852;5.676;2023-05-18T14:45:30;11.15;;;3.80;;
24467;SDS011;12634;50.852;5.676;2023-05-18T14:47:57;9.15;;;3.45;;
24467;SDS011;12634;50.852;5.676;2023-05-18T14:50:26;8.95;;;3.70;;
24467;SDS011;12634;50.852;5.676;2023-05-18T14:52:53;8.50;;;3.03;;